Time;durP1;ratioP1;P1;durP2;ratioP2;P2;SDS_P1;SDS_P2;PMS_P1;PMS_P2;Temp;Humidity;BMP_temperature;BMP_pressure;BME280_temperature;BME280_humidity;BME280_pressure;Samples;Min_cycle;Max_cycle;Signal;HPM_P1;HPM_P2
2022/01/14 00:02:20;;;;;;;;;86.33;66.00;;;;;0.56;59.70;101189.91;5005274;28;9109;-79
2022/01/14 00:04:50;;;;;;;;;86.00;67.00;;;;;0.56;59.22;101183.91;5007916;28;9165;-80
2022/01/14 00:07:20;;;;;;;;;82.00;63.67;;;;;0.65;59.64;101184.50;4994060;28;9249;-77
2022/01/14 00:09:49;;;;;;;;;82.67;66.00;;;;;0.76;59.09;101187.78;5010214;28;9199;-77
2022/01/14 00:12:24;;;;;;;;;84.33;66.00;;;;;0.87;59.29;101191.03;4994301;28;9109;-79
2022/01/14 00:15:11;;;;;;;;;87.00;67.33;;;;;0.94;59.39;101180.38;4995240;28;9166;-78
2022/01/14 00:17:40;;;;;;;;;82.00;66.00;;;;;1.05;59.36;101175.94;5009608;28;9256;-78
2022/01/14 00:20:12;;;;;;;;;87.33;67.00;;;;;1.14;59.13;101172.25;5010136;28;9169;-78
2022/01/14 00:22:41;;;;;;;;;90.33;68.33;;;;;1.19;59.09;101169.97;4972586;28;9175;-78
2022/01/14 00:33:38;;;;;;;;;76.00;59.67;;;;;1.31;58.39;101164.75;5025384;28;9859;-78
2022/01/14 00:36:08;;;;;;;;;77.33;61.67;;;;;1.28;57.06;101164.53;5023104;28;9206;-77
2022/01/14 00:38:37;;;;;;;;;84.33;64.67;;;;;1.27;57.70;101155.94;5034279;28;9053;-77
2022/01/14 00:41:06;;;;;;;;;88.33;67.33;;;;;1.31;58.17;101157.03;5033783;28;9016;-77
2022/01/14 00:43:37;;;;;;;;;79.67;66.33;;;;;1.35;57.87;101151.28;5034729;28;9763;-77
2022/01/14 00:46:06;;;;;;;;;79.00;65.25;;;;;1.37;57.73;101142.00;5033696;28;9014;-78
2022/01/14 00:48:38;;;;;;;;;82.67;64.33;;;;;1.32;58.09;101138.22;5034385;28;9046;-79
2022/01/14 00:51:08;;;;;;;;;73.75;58.75;;;;;1.30;57.88;101140.69;5033288;28;8964;-76
2022/01/14 00:53:37;;;;;;;;;72.75;59.75;;;;;1.26;59.23;101141.31;5018778;28;8981;-78
2022/01/14 00:56:19;;;;;;;;;83.50;63.50;;;;;1.26;58.43;101132.72;5015646;28;8928;-77
2022/01/14 01:01:34;;;;;;;;;70.25;57.75;;;;;1.34;59.00;101131.50;5031675;28;8871;-76
2022/01/14 01:04:04;;;;;;;;;74.25;58.00;;;;;1.41;58.76;101122.50;5061955;28;8828;-77
2022/01/14 01:06:34;;;;;;;;;61.25;51.75;;;;;1.48;58.49;101122.97;5074157;28;8847;-78
2022/01/14 01:09:07;;;;;;;;;67.00;55.25;;;;;1.49;58.16;101111.91;5072095;28;8881;-78
2022/01/14 01:11:40;;;;;;;;;65.25;51.50;;;;;1.29;58.29;101108.09;5089967;28;8962;-76
2022/01/14 01:14:12;;;;;;;;;65.25;52.00;;;;;1.47;58.30;101107.44;5057275;28;8990;-76
2022/01/14 01:16:41;;;;;;;;;77.50;57.00;;;;;1.55;58.33;101102.00;5091853;28;8868;-78
2022/01/14 01:19:11;;;;;;;;;58.25;48.50;;;;;1.31;57.87;101095.34;5057750;28;8910;-78
2022/01/14 01:21:41;;;;;;;;;65.25;52.25;;;;;1.39;58.17;101103.53;5089828;28;8877;-78
2022/01/14 01:24:13;;;;;;;;;67.25;55.50;;;;;1.49;58.47;101099.06;5074635;28;8951;-79
2022/01/14 01:26:43;;;;;;;;;68.75;56.00;;;;;1.36;58.48;101088.78;5059180;28;8865;-80
2022/01/14 01:31:55;;;;;;;;;64.25;53.00;;;;;1.62;58.19;101104.94;5089478;28;8886;-78
2022/01/14 01:34:26;;;;;;;;;65.50;53.50;;;;;1.71;58.02;101098.66;5072556;28;8856;-76
2022/01/14 01:36:59;;;;;;;;;67.50;53.25;;;;;1.89;58.51;101097.97;5018065;28;12264;-79
2022/01/14 01:39:32;;;;;;;;;59.25;48.75;;;;;1.91;58.10;101094.72;5073299;28;8883;-77
2022/01/14 01:42:05;;;;;;;;;43.50;36.00;;;;;1.77;56.72;101080.13;5071545;28;8849;-76
2022/01/14 01:44:35;;;;;;;;;65.75;53.50;;;;;1.90;57.23;101085.22;5062158;28;8863;-77
2022/01/14 01:47:05;;;;;;;;;69.25;56.00;;;;;2.01;57.38;101078.13;5063840;28;8864;-78
2022/01/14 01:49:37;;;;;;;;;57.75;49.75;;;;;2.09;56.39;101074.31;5058271;28;8857;-77
2022/01/14 01:52:09;;;;;;;;;65.75;55.75;;;;;2.09;56.64;101081.16;5056798;28;8869;-76
2022/01/14 01:54:37;;;;;;;;;77.50;59.50;;;;;2.08;56.84;101079.38;5039267;28;8861;-81
2022/01/14 01:57:07;;;;;;;;;69.25;55.75;;;;;1.90;55.85;101079.19;5019808;28;8879;-77
2022/01/14 01:59:36;;;;;;;;;25.25;16.25;;;;;1.88;55.91;101073.94;5090106;28;8872;-77
2022/01/14 02:02:05;;;;;;;;;71.25;58.00;;;;;2.00;56.71;101065.19;5090538;28;8869;-77
2022/01/14 02:04:34;;;;;;;;;69.50;53.00;;;;;2.02;56.67;101067.03;5073642;28;8834;-80
2022/01/14 02:07:03;;;;;;;;;78.25;60.00;;;;;2.10;56.59;101052.06;4984068;28;8866;-78
2022/01/14 02:09:34;;;;;;;;;72.50;54.25;;;;;2.20;56.61;101036.34;5015723;28;8848;-78
2022/01/14 02:12:10;;;;;;;;;61.75;52.00;;;;;2.16;55.66;101034.41;5015370;28;8881;-78
2022/01/14 02:14:56;;;;;;;;;69.00;55.00;;;;;2.20;55.96;101036.34;5044667;28;8840;-79
2022/01/14 02:17:36;;;;;;;;;38.75;37.50;;;;;2.24;56.24;101032.25;5048880;28;9675;-77
2022/01/14 02:22:57;;;;;;;;;69.50;57.75;;;;;2.32;55.96;101024.16;5015448;28;8852;-78
2022/01/14 02:25:30;;;;;;;;;72.25;56.00;;;;;2.33;55.67;101017.34;4992215;28;8872;-79
2022/01/14 02:28:01;;;;;;;;;73.25;55.75;;;;;2.30;55.07;101019.72;5008669;28;8982;-78
2022/01/14 02:30:31;;;;;;;;;66.00;55.25;;;;;2.28;54.96;101006.75;5008636;28;8877;-78
2022/01/14 02:33:00;;;;;;;;;67.75;56.75;;;;;2.14;54.64;100992.25;4991770;28;8986;-78
2022/01/14 02:35:31;;;;;;;;;60.00;51.50;;;;;2.03;55.36;100996.78;4992074;28;8877;-77
2022/01/14 02:38:00;;;;;;;;;53.00;46.00;;;;;1.92;55.10;100997.84;4995913;28;8864;-78
2022/01/14 02:40:29;;;;;;;;;60.75;53.25;;;;;1.95;55.19;100992.91;5027793;28;8877;-79
2022/01/14 02:43:00;;;;;;;;;66.25;48.25;;;;;1.87;55.28;100996.69;4975873;28;8860;-76
2022/01/14 02:45:32;;;;;;;;;72.50;56.75;;;;;1.72;54.50;100995.03;5032083;28;8870;-78
2022/01/14 02:48:01;;;;;;;;;70.50;52.00;;;;;1.86;55.69;100984.66;5012037;28;8841;-77
2022/01/14 02:50:39;;;;;;;;;63.50;54.25;;;;;1.88;55.56;100976.19;5011416;28;8869;-79
2022/01/14 02:53:24;;;;;;;;;66.50;53.50;;;;;1.90;55.30;100972.03;5014664;28;8923;-79
2022/01/14 02:55:55;;;;;;;;;36.25;33.50;;;;;1.82;55.49;100963.00;5002524;28;8849;-80
2022/01/14 02:58:27;;;;;;;;;66.50;53.00;;;;;1.87;55.13;100951.31;5051066;28;8849;-78
2022/01/14 03:00:55;;;;;;;;;50.75;45.75;;;;;1.79;53.68;100944.81;5050307;28;8865;-81
2022/01/14 03:03:26;;;;;;;;;52.25;45.50;;;;;1.64;55.06;100956.78;5051164;28;9098;-79
2022/01/14 03:05:56;;;;;;;;;56.25;51.50;;;;;1.72;54.83;100956.44;5033149;28;8974;-78
2022/01/14 03:08:26;;;;;;;;;65.25;51.00;;;;;1.72;54.71;100952.97;5050809;28;9630;-79
2022/01/14 03:10:58;;;;;;;;;52.75;47.75;;;;;1.86;55.35;100953.78;5037887;28;8991;-78
2022/01/14 03:13:28;;;;;;;;;55.50;45.25;;;;;1.98;54.82;100961.31;5089126;28;8865;-79
2022/01/14 03:15:57;;;;;;;;;48.25;45.00;;;;;2.04;54.83;100959.97;5073997;28;8845;-78
2022/01/14 03:18:33;;;;;;;;;55.25;46.50;;;;;2.08;53.85;100950.72;5051775;28;8918;-81
2022/01/14 03:21:11;;;;;;;;;59.25;48.00;;;;;2.21;54.39;100949.72;5004630;28;8853;-78
2022/01/14 03:23:46;;;;;;;;;54.50;46.75;;;;;2.23;54.75;100948.13;5033902;28;8896;-78
2022/01/14 03:26:17;;;;;;;;;65.00;52.00;;;;;2.28;54.37;100939.84;5050499;28;8869;-77
2022/01/14 03:28:46;;;;;;;;;59.25;46.75;;;;;2.25;53.97;100937.13;5054295;28;8919;-78
2022/01/14 03:31:15;;;;;;;;;66.25;49.00;;;;;2.32;53.57;100928.91;5034034;28;8861;-78
2022/01/14 03:33:44;;;;;;;;;52.25;45.25;;;;;2.25;53.84;100920.78;5026775;28;8854;-77
2022/01/14 03:36:14;;;;;;;;;57.00;45.50;;;;;2.32;54.68;100916.03;5028658;28;8866;-78
2022/01/14 03:38:43;;;;;;;;;49.50;45.25;;;;;2.40;54.11;100913.91;5013060;28;8846;-76
2022/01/14 03:41:12;;;;;;;;;60.25;48.50;;;;;2.38;54.05;100910.34;5010247;28;8962;-78
2022/01/14 03:43:41;;;;;;;;;48.75;41.25;;;;;2.21;53.80;100906.88;5027331;28;8866;-78
2022/01/14 03:46:11;;;;;;;;;46.75;44.50;;;;;2.29;53.84;100902.16;5026844;28;8882;-80
2022/01/14 03:48:40;;;;;;;;;57.00;44.75;;;;;2.37;53.68;100903.44;4996362;28;8892;-79
2022/01/14 03:51:09;;;;;;;;;48.75;42.75;;;;;2.24;53.51;100894.16;5030539;28;8891;-76
2022/01/14 03:53:40;;;;;;;;;51.00;46.75;;;;;2.33;53.70;100893.78;5030619;28;9672;-77
2022/01/14 03:56:09;;;;;;;;;50.25;44.75;;;;;2.35;53.53;100889.59;5046409;28;8844;-79
2022/01/14 03:58:40;;;;;;;;;53.75;48.25;;;;;2.39;54.03;100886.41;5030400;28;8871;-78
2022/01/14 04:01:10;;;;;;;;;40.75;36.00;;;;;2.43;53.27;100880.59;5046927;28;8855;-78
2022/01/14 04:03:40;;;;;;;;;45.50;42.25;;;;;2.45;53.34;100872.97;4998033;28;8840;-79
2022/01/14 04:06:11;;;;;;;;;48.75;43.25;;;;;2.50;53.73;100881.84;5029506;28;8928;-78
2022/01/14 04:08:42;;;;;;;;;40.00;35.50;;;;;2.50;53.98;100879.25;5013589;28;8954;-82
2022/01/14 04:11:11;;;;;;;;;56.25;44.50;;;;;2.46;54.17;100872.19;5013274;28;8875;-79
2022/01/14 04:13:47;;;;;;;;;56.50;48.00;;;;;2.53;53.26;100874.25;5012424;28;8847;-78
2022/01/14 04:16:16;;;;;;;;;42.00;38.00;;;;;2.57;53.55;100870.16;5045932;28;8994;-79
2022/01/14 04:18:46;;;;;;;;;56.25;44.25;;;;;2.51;53.35;100860.41;5045354;28;8855;-77
2022/01/14 04:21:15;;;;;;;;;43.25;40.25;;;;;2.52;53.50;100862.19;5029380;28;8984;-77
2022/01/14 04:23:45;;;;;;;;;61.25;50.75;;;;;2.47;53.19;100861.94;5029506;28;8955;-78
2022/01/14 04:26:15;;;;;;;;;49.75;44.50;;;;;2.42;52.82;100852.19;5012940;28;8856;-80
2022/01/14 04:28:43;;;;;;;;;32.75;32.75;;;;;2.37;53.83;100861.38;5045980;28;8859;-78
2022/01/14 04:31:12;;;;;;;;;50.50;44.25;;;;;2.28;53.45;100862.63;4996800;28;8895;-77
2022/01/14 04:33:41;;;;;;;;;57.75;48.00;;;;;2.24;53.40;100860.72;5029304;28;8828;-78
2022/01/14 04:36:09;;;;;;;;;50.25;46.00;;;;;2.23;53.18;100856.38;4979985;28;8868;-77
2022/01/14 04:38:38;;;;;;;;;43.25;39.50;;;;;2.17;52.78;100847.44;5087180;28;8842;-78
2022/01/14 04:41:09;;;;;;;;;40.75;37.00;;;;;2.10;52.82;100857.41;5036951;28;8935;-77
2022/01/14 04:43:38;;;;;;;;;46.50;41.75;;;;;2.14;52.82;100858.44;5070210;28;8896;-78
2022/01/14 04:49:08;;;;;;;;;40.50;39.50;;;;;2.18;52.66;100857.81;4993105;28;8886;-79
2022/01/14 04:51:37;;;;;;;;;42.00;38.25;;;;;2.24;52.65;100854.69;4960558;28;8878;-77
2022/01/14 04:54:06;;;;;;;;;45.00;37.00;;;;;2.21;53.44;100851.94;4990790;28;8882;-77
2022/01/14 04:56:36;;;;;;;;;49.25;44.25;;;;;2.25;52.92;100844.47;4972594;28;8982;-76
2022/01/14 04:59:05;;;;;;;;;45.50;42.75;;;;;2.22;53.90;100831.44;5008868;28;9778;-78
2022/01/14 05:01:34;;;;;;;;;48.50;42.75;;;;;2.25;52.96;100823.91;5008181;28;8885;-78
2022/01/14 05:04:04;;;;;;;;;36.50;34.00;;;;;2.26;53.71;100827.34;4965640;28;8848;-78
2022/01/14 05:06:32;;;;;;;;;41.00;38.50;;;;;2.25;53.58;100831.63;4949746;28;8888;-76
2022/01/14 05:09:05;;;;;;;;;49.00;42.00;;;;;2.23;53.26;100822.94;4949934;28;8902;-78
2022/01/14 05:11:40;;;;;;;;;25.00;24.25;;;;;2.16;52.97;100820.81;4965686;28;9042;-77
2022/01/14 05:14:10;;;;;;;;;44.75;39.75;;;;;2.16;52.85;100819.94;4949936;28;8872;-76
2022/01/14 05:16:39;;;;;;;;;76.50;59.00;;;;;2.14;52.88;100812.13;4936943;28;8852;-78
2022/01/14 05:19:08;;;;;;;;;55.50;46.00;;;;;2.09;52.66;100805.84;4955931;28;8895;-78
2022/01/14 05:21:36;;;;;;;;;38.75;38.25;;;;;2.06;52.48;100805.66;5043908;28;8928;-77
2022/01/14 05:24:06;;;;;;;;;32.75;28.50;;;;;2.01;52.39;100787.44;5027893;28;10144;-78
2022/01/14 05:26:34;;;;;;;;;57.25;45.25;;;;;1.94;52.99;100800.75;4947646;28;9742;-78
2022/01/14 05:29:03;;;;;;;;;56.25;48.25;;;;;1.90;53.12;100794.56;5031936;28;9094;-77
2022/01/14 05:31:45;;;;;;;;;59.50;47.75;;;;;1.98;53.58;100789.81;5044659;28;8867;-78
2022/01/14 05:34:13;;;;;;;;;42.75;34.25;;;;;1.88;53.09;100788.44;5046667;28;8848;-80
2022/01/14 05:36:43;;;;;;;;;43.75;38.25;;;;;1.90;53.14;100794.56;5084824;28;8855;-77
2022/01/14 05:39:12;;;;;;;;;39.75;35.75;;;;;1.82;52.84;100788.13;5067978;28;9620;-80
2022/01/14 05:41:41;;;;;;;;;44.25;41.00;;;;;1.78;52.93;100791.34;5027567;28;9079;-78
2022/01/14 05:44:10;;;;;;;;;42.00;39.25;;;;;1.66;52.97;100794.09;5027518;28;9066;-77
2022/01/14 05:46:38;;;;;;;;;40.25;36.25;;;;;1.71;52.70;100790.09;4978765;28;8995;-78
2022/01/14 05:49:09;;;;;;;;;50.75;38.50;;;;;1.70;53.25;100784.88;5044010;28;8856;-77
2022/01/14 05:51:38;;;;;;;;;42.00;35.75;;;;;1.72;53.58;100779.03;5027248;28;8948;-77
2022/01/14 05:54:07;;;;;;;;;40.50;37.00;;;;;1.64;53.28;100775.13;5043818;28;8879;-77
2022/01/14 05:56:36;;;;;;;;;45.25;39.50;;;;;1.69;53.72;100778.84;5023342;28;8847;-77
2022/01/14 05:59:05;;;;;;;;;46.25;41.50;;;;;1.67;53.33;100772.75;5043899;28;8850;-78
2022/01/14 06:01:33;;;;;;;;;50.50;42.50;;;;;1.71;53.93;100766.06;5028359;28;8887;-76
2022/01/14 06:04:04;;;;;;;;;52.50;47.50;;;;;1.67;53.03;100761.56;5046006;28;8886;-79
2022/01/14 06:06:35;;;;;;;;;47.00;41.75;;;;;1.65;53.79;100770.91;5005948;28;8879;-78
2022/01/14 06:09:05;;;;;;;;;45.75;42.50;;;;;1.61;54.10;100761.22;4987544;28;8878;-76
2022/01/14 06:11:34;;;;;;;;;47.00;38.50;;;;;1.60;53.83;100749.19;4987349;28;8868;-76
2022/01/14 06:14:02;;;;;;;;;56.25;48.50;;;;;1.59;53.75;100755.09;5025705;28;8859;-77
2022/01/14 06:16:31;;;;;;;;;43.50;38.00;;;;;1.59;54.45;100744.81;5010242;28;9175;-77
2022/01/14 06:19:00;;;;;;;;;42.25;37.25;;;;;1.56;54.22;100740.41;5027222;28;8941;-78
2022/01/14 06:21:28;;;;;;;;;46.50;42.00;;;;;1.62;54.33;100745.88;4967944;28;9575;-77
2022/01/14 06:23:58;;;;;;;;;45.75;39.50;;;;;1.53;54.41;100736.00;4953080;28;8903;-77
2022/01/14 06:26:27;;;;;;;;;35.00;23.25;;;;;1.47;53.60;100742.47;4988733;28;8894;-80
2022/01/14 06:28:55;;;;;;;;;48.25;44.00;;;;;1.48;54.24;100742.56;5007301;28;9004;-78
2022/01/14 06:31:24;;;;;;;;;43.50;42.75;;;;;1.51;54.48;100749.53;4991327;28;8929;-79
2022/01/14 06:33:53;;;;;;;;;43.25;40.00;;;;;1.55;54.64;100751.47;5007114;28;8878;-81
2022/01/14 06:36:22;;;;;;;;;44.00;35.75;;;;;1.61;54.17;100756.97;5022518;28;8948;-79
2022/01/14 06:38:51;;;;;;;;;43.25;35.50;;;;;1.65;54.18;100753.78;4981320;28;8915;-79
2022/01/14 06:41:21;;;;;;;;;48.00;39.75;;;;;1.70;54.17;100752.34;4993898;28;8894;-79
2022/01/14 06:43:50;;;;;;;;;46.00;42.75;;;;;1.67;53.73;100749.59;5000748;28;8867;-80
2022/01/14 06:46:19;;;;;;;;;53.75;45.75;;;;;1.69;53.62;100748.00;5063591;28;9619;-76
2022/01/14 06:48:48;;;;;;;;;50.50;45.25;;;;;1.74;53.95;100748.25;5014351;28;8887;-77
2022/01/14 06:51:17;;;;;;;;;32.00;25.50;;;;;1.80;53.86;100753.72;5046651;28;9773;-78
2022/01/14 06:53:46;;;;;;;;;44.00;37.25;;;;;1.88;54.34;100749.88;5087524;28;8873;-79
2022/01/14 06:56:16;;;;;;;;;48.75;41.75;;;;;1.94;53.94;100746.75;5088411;28;8841;-77
2022/01/14 06:58:46;;;;;;;;;44.00;35.75;;;;;2.03;53.74;100744.66;5037468;28;8853;-76
2022/01/14 07:01:15;;;;;;;;;36.75;32.75;;;;;2.08;54.07;100739.75;5088191;28;8881;-78
2022/01/14 07:03:44;;;;;;;;;48.75;42.50;;;;;2.16;53.29;100735.91;5067199;28;8862;-75
2022/01/14 07:06:13;;;;;;;;;45.25;41.00;;;;;2.17;54.33;100731.63;5054023;28;8845;-76
2022/01/14 07:08:41;;;;;;;;;40.50;39.50;;;;;2.17;54.03;100719.66;5089255;28;8849;-76
2022/01/14 07:11:11;;;;;;;;;47.50;39.50;;;;;2.25;54.50;100720.03;5053953;28;8888;-78
2022/01/14 07:13:39;;;;;;;;;50.00;43.75;;;;;2.31;54.12;100717.81;5088192;28;8864;-77
2022/01/14 07:16:09;;;;;;;;;35.75;30.00;;;;;2.22;54.11;100717.34;5070364;28;9395;-78
2022/01/14 07:18:38;;;;;;;;;39.75;37.25;;;;;2.40;54.39;100715.72;5065817;28;9624;-77
2022/01/14 07:21:07;;;;;;;;;48.75;43.00;;;;;2.39;54.10;100713.94;5033142;28;8952;-78
2022/01/14 07:23:36;;;;;;;;;51.75;47.00;;;;;2.54;54.05;100711.25;5047746;28;8899;-76
2022/01/14 07:26:05;;;;;;;;;42.25;38.75;;;;;2.59;53.84;100719.19;5016587;28;8885;-78
2022/01/14 07:28:33;;;;;;;;;32.25;27.75;;;;;2.77;53.84;100719.25;5065625;28;9571;-76
2022/01/14 07:31:02;;;;;;;;;36.00;32.50;;;;;2.82;53.70;100712.66;5018126;28;8910;-76
2022/01/14 07:33:32;;;;;;;;;43.50;36.75;;;;;2.93;52.59;100709.78;5024325;28;8884;-78
2022/01/14 07:36:00;;;;;;;;;39.25;37.50;;;;;2.99;52.98;100705.75;5009044;28;8880;-76
2022/01/14 07:38:29;;;;;;;;;46.50;41.00;;;;;2.86;53.30;100699.97;5008159;28;8961;-76
2022/01/14 07:40:58;;;;;;;;;51.25;44.00;;;;;3.02;53.02;100690.41;4993273;28;8898;-76
2022/01/14 07:43:27;;;;;;;;;40.25;38.25;;;;;3.13;52.38;100682.38;5009729;28;8857;-76
2022/01/14 07:45:55;;;;;;;;;44.50;35.50;;;;;3.23;52.36;100675.09;5026232;28;8947;-77
2022/01/14 07:48:24;;;;;;;;;48.00;43.25;;;;;3.37;52.68;100678.34;5009489;28;8854;-77
2022/01/14 07:50:54;;;;;;;;;41.25;39.50;;;;;3.45;51.85;100666.66;5009668;28;8866;-77
2022/01/14 07:53:23;;;;;;;;;46.00;41.25;;;;;3.54;52.35;100669.69;4966139;28;8872;-77
2022/01/14 07:55:52;;;;;;;;;42.25;38.00;;;;;3.63;51.35;100664.03;4959896;28;8840;-77
2022/01/14 07:58:21;;;;;;;;;53.75;45.50;;;;;3.70;51.05;100661.84;4988857;28;8983;-74
2022/01/14 08:00:53;;;;;;;;;50.25;43.50;;;;;3.84;51.76;100659.00;4989613;28;8859;-73
2022/01/14 08:03:21;;;;;;;;;58.00;47.75;;;;;3.92;51.24;100654.16;5005813;28;9725;-74
2022/01/14 08:05:53;;;;;;;;;62.50;50.00;;;;;4.04;50.95;100659.84;4989505;28;8863;-73
2022/01/14 08:08:23;;;;;;;;;55.25;47.75;;;;;4.13;50.83;100646.47;4989537;28;8844;-74
2022/01/14 08:10:52;;;;;;;;;50.25;39.25;;;;;4.17;50.55;100636.31;5003148;28;8851;-73
2022/01/14 08:13:20;;;;;;;;;55.00;47.25;;;;;4.24;51.24;100651.28;5009707;28;9023;-75
2022/01/14 08:15:49;;;;;;;;;57.75;46.50;;;;;4.32;50.55;100643.84;5029126;28;8855;-74
2022/01/14 08:18:17;;;;;;;;;56.25;46.25;;;;;4.32;50.68;100645.56;5027964;28;8944;-71
2022/01/14 08:20:46;;;;;;;;;63.50;50.50;;;;;4.29;50.00;100636.88;5012044;28;8976;-74
2022/01/14 08:23:15;;;;;;;;;55.00;47.00;;;;;4.14;50.44;100661.13;5012376;28;8986;-73
2022/01/14 08:25:45;;;;;;;;;55.50;44.75;;;;;4.24;51.92;100660.72;5083524;28;8908;-73
2022/01/14 08:28:14;;;;;;;;;61.75;49.50;;;;;4.37;51.74;100657.84;5086017;28;8948;-76
2022/01/14 08:30:43;;;;;;;;;47.75;42.50;;;;;4.32;50.55;100661.03;5087181;28;8857;-74
2022/01/14 08:33:12;;;;;;;;;64.00;45.50;;;;;4.21;52.27;100661.44;5083970;28;8849;-72
2022/01/14 08:35:41;;;;;;;;;55.25;44.25;;;;;4.40;51.35;100667.41;5051255;28;8873;-73
2022/01/14 08:38:10;;;;;;;;;53.00;45.50;;;;;4.57;51.79;100653.50;5086123;28;8849;-72
2022/01/14 08:40:39;;;;;;;;;50.75;44.00;;;;;4.67;51.54;100652.19;5035057;28;8942;-75
2022/01/14 08:43:09;;;;;;;;;38.00;31.50;;;;;4.79;51.66;100652.69;5086970;28;9730;-75
2022/01/14 08:45:38;;;;;;;;;44.50;40.75;;;;;4.81;50.85;100640.72;5085464;28;8845;-73
2022/01/14 08:48:07;;;;;;;;;45.25;41.75;;;;;4.95;51.63;100640.38;5086664;28;8845;-73
2022/01/14 08:50:38;;;;;;;;;44.25;38.25;;;;;4.95;51.76;100638.66;5086055;28;8854;-72
2022/01/14 08:53:09;;;;;;;;;43.25;35.25;;;;;4.83;51.30;100640.78;5035303;28;8853;-72
2022/01/14 08:55:38;;;;;;;;;56.00;45.00;;;;;5.03;51.74;100633.81;5069561;28;8861;-72
2022/01/14 08:58:10;;;;;;;;;48.50;43.50;;;;;5.05;52.01;100624.44;5087172;28;8903;-73
2022/01/14 09:00:39;;;;;;;;;48.50;43.25;;;;;4.99;51.56;100632.81;5086093;28;8837;-74
2022/01/14 09:03:08;;;;;;;;;42.25;36.25;;;;;4.92;51.95;100632.53;5085104;28;9638;-74
2022/01/14 09:05:37;;;;;;;;;43.25;41.00;;;;;5.02;51.62;100632.03;5068247;28;8841;-73
2022/01/14 09:08:06;;;;;;;;;44.25;36.75;;;;;4.92;52.60;100623.06;5086003;28;8845;-72
2022/01/14 09:10:35;;;;;;;;;40.25;38.00;;;;;4.63;53.17;100627.94;5069519;28;8863;-75
2022/01/14 09:13:03;;;;;;;;;44.00;40.00;;;;;4.87;53.26;100627.16;5077462;28;8877;-72
2022/01/14 09:15:34;;;;;;;;;39.50;33.50;;;;;4.84;52.88;100622.75;5035620;28;8833;-72
2022/01/14 09:18:03;;;;;;;;;27.00;26.25;;;;;4.97;51.49;100625.81;5086329;28;9598;-72
2022/01/14 09:20:32;;;;;;;;;34.40;30.40;;;;;4.76;52.81;100624.13;5085896;28;8852;-74
2022/01/14 09:23:01;;;;;;;;;28.40;26.60;;;;;4.86;52.83;100617.66;5085959;28;8877;-73
2022/01/14 09:25:29;;;;;;;;;38.00;30.67;;;;;4.70;52.58;100613.56;5085271;28;8865;-73
2022/01/14 09:27:58;;;;;;;;;31.75;28.50;;;;;4.82;52.52;100626.97;5067171;28;8849;-74
2022/01/14 09:30:27;;;;;;;;;27.00;26.25;;;;;4.93;52.84;100616.16;5086231;28;9003;-74
2022/01/14 09:32:57;;;;;;;;;30.75;27.25;;;;;4.64;53.46;100621.06;5085627;28;8877;-74
2022/01/14 09:35:25;;;;;;;;;33.75;28.50;;;;;4.67;52.70;100611.75;5069432;28;8919;-74
2022/01/14 09:37:54;;;;;;;;;30.25;29.25;;;;;4.80;53.52;100596.72;5086427;28;8858;-74
2022/01/14 09:40:27;;;;;;;;;32.25;30.25;;;;;4.77;53.63;100596.59;5086280;28;8881;-75
2022/01/14 09:43:00;;;;;;;;;33.00;28.00;;;;;4.65;53.37;100586.63;5085270;28;8880;-73
2022/01/14 09:45:52;;;;;;;;;35.50;31.25;;;;;4.43;54.25;100592.66;5069178;28;8883;-75
2022/01/14 09:48:23;;;;;;;;;35.50;29.00;;;;;4.67;54.10;100569.53;5069141;28;8838;-75
2022/01/14 09:50:51;;;;;;;;;34.50;31.00;;;;;4.74;53.68;100589.59;5069290;28;8849;-70
2022/01/14 09:53:20;;;;;;;;;31.50;28.00;;;;;4.81;54.18;100586.44;5087055;28;8907;-70
2022/01/14 09:55:49;;;;;;;;;35.50;33.50;;;;;4.71;54.93;100583.41;5085834;28;8861;-69
2022/01/14 09:58:18;;;;;;;;;34.25;32.25;;;;;5.01;54.45;100574.31;5085730;28;8872;-74
2022/01/14 10:00:47;;;;;;;;;41.25;32.25;;;;;4.85;54.80;100577.09;5086860;28;8869;-74
2022/01/14 10:03:22;;;;;;;;;23.60;21.80;;;;;4.81;54.13;100568.34;5087262;28;8883;-79
2022/01/14 10:05:52;;;;;;;;;36.75;28.25;;;;;5.03;54.46;100566.63;5027934;28;8871;-79
2022/01/14 10:08:25;;;;;;;;;30.25;25.75;;;;;4.82;54.67;100559.78;5011545;28;8964;-83
2022/01/14 10:10:58;;;;;;;;;28.00;23.40;;;;;5.11;53.53;100552.28;5012743;28;9023;-80
2022/01/14 10:13:29;;;;;;;;;20.40;18.80;;;;;5.13;54.40;100549.75;5031172;28;8961;-80
2022/01/14 10:16:04;;;;;;;;;24.60;20.40;;;;;5.07;54.19;100534.88;5013789;28;8968;-78
2022/01/14 10:18:38;;;;;;;;;26.80;26.00;;;;;4.95;53.85;100530.09;5014376;28;8993;-78
2022/01/14 10:21:11;;;;;;;;;33.60;29.60;;;;;4.92;53.91;100527.44;5030530;28;8886;-79
2022/01/14 10:23:43;;;;;;;;;31.00;25.75;;;;;4.96;54.89;100518.97;4977877;28;8874;-79
2022/01/14 10:26:12;;;;;;;;;30.20;23.80;;;;;4.78;55.52;100520.84;5044942;28;8883;-78
2022/01/14 10:28:45;;;;;;;;;29.00;25.20;;;;;4.90;56.09;100505.81;4996969;28;8868;-79
2022/01/14 10:31:14;;;;;;;;;24.60;21.40;;;;;5.06;55.52;100499.50;5027575;28;8863;-79
2022/01/14 10:33:45;;;;;;;;;30.60;27.20;;;;;4.99;55.59;100488.06;5030041;28;8875;-80
2022/01/14 10:36:22;;;;;;;;;33.75;28.00;;;;;5.01;56.21;100498.44;5010866;28;8897;-80
2022/01/14 10:38:51;;;;;;;;;27.00;23.50;;;;;5.11;56.35;100491.94;5031355;28;8859;-78
2022/01/14 10:41:22;;;;;;;;;29.25;27.75;;;;;4.84;57.24;100495.25;5029847;28;8871;-77
2022/01/14 10:43:51;;;;;;;;;31.50;29.25;;;;;4.74;57.63;100494.00;5065420;28;9646;-78
2022/01/14 10:46:28;;;;;;;;;40.50;34.25;;;;;4.52;59.03;100488.81;5072545;28;9683;-79
2022/01/14 10:48:59;;;;;;;;;22.75;22.00;;;;;4.80;58.24;100483.00;5087223;28;9553;-80
2022/01/14 10:51:28;;;;;;;;;39.80;38.40;;;;;4.79;58.86;100478.69;5020668;28;8843;-76
2022/01/14 10:53:57;;;;;;;;;41.00;33.50;;;;;4.97;58.36;100475.91;5070950;28;8909;-77
2022/01/14 10:56:27;;;;;;;;;39.25;36.00;;;;;4.87;58.22;100464.34;5047789;28;8949;-80
2022/01/14 10:58:59;;;;;;;;;45.00;40.50;;;;;4.74;58.60;100468.16;5031307;28;9720;-80
2022/01/14 11:01:30;;;;;;;;;51.00;43.00;;;;;5.00;58.67;100465.69;5030678;28;8847;-79
2022/01/14 11:04:10;;;;;;;;;43.50;39.50;;;;;5.05;58.72;100457.28;5014237;28;8887;-78
2022/01/14 11:06:42;;;;;;;;;45.00;42.00;;;;;5.42;58.16;100461.16;5025268;28;8863;-77
2022/01/14 11:09:13;;;;;;;;;48.75;42.50;;;;;5.57;57.79;100453.03;5029361;28;8844;-79
2022/01/14 11:11:44;;;;;;;;;46.25;41.00;;;;;5.75;57.13;100441.59;5030477;28;8836;-79
2022/01/14 11:14:14;;;;;;;;;50.25;42.75;;;;;5.86;56.94;100432.47;5014215;28;8847;-77
2022/01/14 11:16:45;;;;;;;;;53.25;44.25;;;;;5.99;56.84;100433.75;5013982;28;8886;-78
2022/01/14 11:19:15;;;;;;;;;55.75;46.00;;;;;6.29;56.56;100425.19;4994039;28;8867;-77
2022/01/14 11:24:33;;;;;;;;;44.50;43.00;;;;;6.27;56.04;100419.09;5029997;28;8863;-78
2022/01/14 11:27:22;;;;;;;;;56.50;44.50;;;;;6.56;55.50;100414.78;5021007;28;9668;-79
2022/01/14 11:29:57;;;;;;;;;54.75;41.75;;;;;6.51;54.87;100409.47;5087943;28;8845;-76
2022/01/14 11:32:27;;;;;;;;;64.50;52.00;;;;;6.35;55.32;100402.97;5085630;28;8973;-77
2022/01/14 11:34:57;;;;;;;;;60.50;50.50;;;;;6.31;54.63;100403.69;5069843;28;8845;-77
2022/01/14 11:37:33;;;;;;;;;49.00;41.25;;;;;6.38;55.16;100392.69;5070544;28;8862;-78
2022/01/14 11:40:05;;;;;;;;;56.00;47.00;;;;;6.23;57.23;100397.41;5070106;28;8833;-78
2022/01/14 11:42:42;;;;;;;;;56.00;46.75;;;;;5.80;57.52;100383.97;5104225;28;8977;-78
2022/01/14 11:45:12;;;;;;;;;56.50;44.25;;;;;6.14;57.44;100372.09;5086585;28;8862;-77
2022/01/14 11:48:01;;;;;;;;;56.75;48.00;;;;;6.24;57.11;100368.09;5067445;28;8852;-77
2022/01/14 11:50:49;;;;;;;;;60.25;51.50;;;;;6.06;57.31;100363.22;5070543;28;8845;-77
2022/01/14 11:53:39;;;;;;;;;58.00;48.00;;;;;6.00;57.49;100358.72;5048094;28;8872;-77
2022/01/14 11:56:24;;;;;;;;;61.50;48.75;;;;;5.82;57.89;100346.06;5048611;28;8813;-79
2022/01/14 11:58:53;;;;;;;;;56.75;47.50;;;;;6.01;57.77;100346.66;5031200;28;9004;-80
2022/01/14 12:01:44;;;;;;;;;55.25;42.75;;;;;6.33;57.31;100346.75;5048628;28;8896;-80
2022/01/14 12:04:12;;;;;;;;;61.00;51.00;;;;;6.02;57.53;100349.28;4988639;28;8923;-80